Portada
METAR-TAF:

METAR-TAF

Aeroports :

Najaf, Iraq

latitud: 31-59-23N, longitud: 44-24-15E, altitud: 31 m

Observació

L'informe es va fer fa 30 minuts, a les 08:00 UTC
Vent 8 kt del Sud-Oest
Temperatura 24°C
Humitat 27%
Pressió 1019 hPa
Visibilitat: 6000 m
Núvols disperses a una alçada de 4000 ft

METAR: ORNI 120800Z 22008KT 6000 SCT040 24/04 Q1019 NOSIG

Hora: 11:30 (08:30 UTC)

Pronòstic

L'informe es va fer fa 4 hores i 30 minuts, a les 04:00 UTC
Pronòstic vàlid del 12 a les 06 UTC al 13 a les 06 UTC
Vent 6 kt del Oest
Visibilitat: 8000 m
Evolucionant progressivament
l' 12 a les 12 UTC al 12 a les 14 UTC
Núvols disperses a una alçada de 3000 ft
Cel ennuvolat a una alçada de 8000 ft

TAF: ORNI 120400Z 1206/1306 27006KT 8000 NSC BECMG 1212/1214 SCT030 BKN080

Observacions i pronòstics meteorològics de més de 4000 aeroports (METAR i TAF).

Les estacions disponibles són els punts grocs i vermells al mapa.

Posi el ratolí al punt desitjat per veure el nom de l'estació.

Feu clic per veure les observacions i els pronòstics meteorològics.

Per canviar el mapa: feu clic els botons verds amb una creu de color negre per apropar; al botó verd amb un guió per allunyar la imatge; o en les fletxes verdes per a mapes adjacents.


METAR-TAF: